Terminal Aerodrome Forecast
Issued by NWS Wilmington, OH

Home | Current Version | Previous Version | Text Only | Print | Product List | Glossary On
Versions: 1 2 3 4 5 6 7 8 9 10 11 12 13 14 15 16 17 18 19 20 21 22 23 24 25 26 27 28 29
000
FTUS41 KILN 181746 CCA
TAFILN
TAF COR
KILN 181746Z 1818/1918 29008KT P6SM OVC008
     FM190100 23005KT P6SM BKN010
     FM191200 VRB03KT 5SM BR SCT012 BKN250
     FM191600 16005KT P6SM BKN250=

USA.gov is the U.S. government's official web portal to all federal, state and local government web resources and services.